Time;durP1;ratioP1;P1;durP2;ratioP2;P2;SDS_P1;SDS_P2;PMS_P1;PMS_P2;Temp;Humidity;BMP_temperature;BMP_pressure;BME280_temperature;BME280_humidity;BME280_pressure;Samples;Min_cycle;Max_cycle;Signal;HPM_P1;HPM_P2
2023/12/20 00:00:39;;;;;;;;;13.25;12.25;;;;;;;;5099290;27;45527;-74
2023/12/20 00:03:05;;;;;;;;;11.25;10.50;;;;;;;;5099691;27;45364;-76
2023/12/20 00:05:32;;;;;;;;;11.75;10.00;;;;;;;;5096549;27;45397;-76
2023/12/20 00:07:57;;;;;;;;;11.00;11.00;;;;;;;;5098030;27;45465;-76
2023/12/20 00:10:22;;;;;;;;;17.50;13.25;;;;;;;;5098982;27;45401;-71
2023/12/20 00:12:48;;;;;;;;;11.25;10.75;;;;;;;;5099018;27;45481;-75
2023/12/20 00:15:13;;;;;;;;;9.00;9.00;;;;;;;;5098912;27;45377;-73
2023/12/20 00:17:38;;;;;;;;;11.50;11.00;;;;;;;;5099019;27;46113;-73
2023/12/20 00:20:06;;;;;;;;;15.00;12.50;;;;;;;;5098753;27;45501;-74
2023/12/20 00:22:31;;;;;;;;;12.25;12.00;;;;;;;;5096406;27;45275;-72
2023/12/20 00:24:56;;;;;;;;;9.50;8.50;;;;;;;;5099140;27;45309;-76
2023/12/20 00:27:23;;;;;;;;;10.75;10.75;;;;;;;;5097330;27;46117;-75
2023/12/20 00:29:49;;;;;;;;;9.50;9.50;;;;;;;;5098835;27;45396;-76
2023/12/20 00:32:15;;;;;;;;;10.00;10.00;;;;;;;;5098915;27;45879;-75
2023/12/20 00:34:40;;;;;;;;;14.50;12.00;;;;;;;;5098806;27;45746;-72
2023/12/20 00:37:06;;;;;;;;;11.50;10.75;;;;;;;;5098718;27;45428;-76
2023/12/20 00:39:32;;;;;;;;;10.50;10.50;;;;;;;;5098599;27;45324;-72
2023/12/20 00:41:58;;;;;;;;;14.75;12.75;;;;;;;;5098696;27;45371;-76
2023/12/20 00:44:23;;;;;;;;;9.50;9.25;;;;;;;;5098587;27;45363;-76
2023/12/20 00:46:49;;;;;;;;;9.25;9.25;;;;;;;;5098113;27;45432;-71
2023/12/20 00:49:14;;;;;;;;;16.75;13.25;;;;;;;;5098304;27;45471;-75
2023/12/20 00:51:40;;;;;;;;;13.25;12.00;;;;;;;;5097665;27;45571;-76
2023/12/20 00:54:05;;;;;;;;;10.50;10.50;;;;;;;;5098566;27;45510;-75
2023/12/20 00:56:30;;;;;;;;;12.75;9.75;;;;;;;;5098263;27;45383;-76
2023/12/20 00:58:56;;;;;;;;;14.00;12.00;;;;;;;;5098347;27;45540;-74
2023/12/20 01:01:21;;;;;;;;;10.25;10.00;;;;;;;;5098304;27;45562;-73
2023/12/20 01:03:46;;;;;;;;;10.00;9.75;;;;;;;;5098365;27;45514;-75
2023/12/20 01:06:12;;;;;;;;;11.75;11.00;;;;;;;;5098245;27;45613;-72
2023/12/20 01:08:37;;;;;;;;;11.00;10.25;;;;;;;;5098422;27;45493;-75
2023/12/20 01:11:06;;;;;;;;;9.25;8.25;;;;;;;;5096680;27;45396;-76
2023/12/20 01:13:31;;;;;;;;;8.75;8.75;;;;;;;;5098290;27;45492;-75
2023/12/20 01:15:57;;;;;;;;;10.00;9.50;;;;;;;;5097689;27;45945;-76
2023/12/20 01:18:22;;;;;;;;;9.00;8.50;;;;;;;;5097701;27;45444;-71
2023/12/20 01:20:47;;;;;;;;;10.75;9.75;;;;;;;;5097950;27;45789;-74
2023/12/20 01:23:13;;;;;;;;;10.25;9.75;;;;;;;;5098128;27;45432;-72
2023/12/20 01:25:39;;;;;;;;;14.25;14.25;;;;;;;;5096582;27;46248;-75
2023/12/20 01:28:04;;;;;;;;;10.75;10.50;;;;;;;;5097786;27;45479;-76
2023/12/20 01:30:30;;;;;;;;;5.25;5.00;;;;;;;;5097911;27;45503;-76
2023/12/20 01:32:55;;;;;;;;;8.00;8.00;;;;;;;;5097409;27;45229;-76
2023/12/20 01:35:21;;;;;;;;;11.50;10.00;;;;;;;;5097511;27;46093;-72
2023/12/20 01:37:46;;;;;;;;;6.00;5.00;;;;;;;;5096311;27;45668;-71
2023/12/20 01:40:12;;;;;;;;;6.00;6.00;;;;;;;;5098824;27;45817;-71
2023/12/20 01:42:37;;;;;;;;;7.25;7.25;;;;;;;;5097938;27;45479;-71
2023/12/20 01:45:03;;;;;;;;;5.00;5.00;;;;;;;;5098180;27;45325;-71
2023/12/20 01:47:28;;;;;;;;;4.25;4.00;;;;;;;;5097374;27;45573;-74
2023/12/20 01:49:56;;;;;;;;;2.25;2.25;;;;;;;;5096141;27;45535;-71
2023/12/20 01:52:22;;;;;;;;;1.00;1.00;;;;;;;;5097659;27;45486;-71
2023/12/20 01:54:48;;;;;;;;;4.00;3.00;;;;;;;;5096907;27;45554;-75
2023/12/20 01:57:14;;;;;;;;;4.00;3.00;;;;;;;;5097504;27;45489;-71
2023/12/20 01:59:40;;;;;;;;;3.00;3.00;;;;;;;;5095159;27;45787;-71
2023/12/20 02:02:06;;;;;;;;;2.50;1.00;;;;;;;;5097463;27;45355;-71
2023/12/20 02:04:32;;;;;;;;;1.00;1.00;;;;;;;;5097288;27;46231;-75
2023/12/20 02:06:58;;;;;;;;;0.50;0.00;;;;;;;;5097113;27;45408;-71
2023/12/20 02:09:24;;;;;;;;;1.00;1.00;;;;;;;;5097532;27;45313;-75
2023/12/20 02:11:50;;;;;;;;;0.00;0.00;;;;;;;;5097434;27;45366;-75
2023/12/20 02:14:15;;;;;;;;;1.00;1.00;;;;;;;;5097015;27;45900;-71
2023/12/20 02:16:41;;;;;;;;;0.00;0.00;;;;;;;;5096794;27;45420;-75
2023/12/20 02:19:11;;;;;;;;;0.00;0.00;;;;;;;;5096729;27;45384;-75
2023/12/20 02:21:36;;;;;;;;;1.00;0.00;;;;;;;;5096599;27;45487;-76
2023/12/20 02:24:01;;;;;;;;;1.00;1.00;;;;;;;;5095402;27;45409;-71
2023/12/20 02:26:27;;;;;;;;;0.33;0.00;;;;;;;;5096406;27;45506;-75
2023/12/20 02:28:52;;;;;;;;;1.00;0.00;;;;;;;;5096486;27;45433;-71
2023/12/20 02:31:20;;;;;;;;;0.00;0.00;;;;;;;;5098718;27;45424;-71
2023/12/20 02:33:46;;;;;;;;;0.00;0.00;;;;;;;;5099147;27;45358;-74
2023/12/20 02:36:11;;;;;;;;;0.33;0.33;;;;;;;;5100443;27;45440;-71
2023/12/20 02:38:36;;;;;;;;;0.00;0.00;;;;;;;;5100623;27;45266;-71
2023/12/20 02:41:02;;;;;;;;;0.00;0.00;;;;;;;;5100402;27;45397;-71
2023/12/20 02:43:27;;;;;;;;;0.00;0.00;;;;;;;;5100343;27;45732;-71
2023/12/20 02:45:52;;;;;;;;;0.00;0.00;;;;;;;;5100255;27;45225;-71
2023/12/20 02:48:18;;;;;;;;;1.00;1.00;;;;;;;;5100477;27;45339;-71
2023/12/20 02:50:43;;;;;;;;;0.33;0.33;;;;;;;;5100950;27;45504;-71
2023/12/20 02:53:09;;;;;;;;;0.00;0.00;;;;;;;;5100170;27;45419;-71
2023/12/20 02:55:34;;;;;;;;;0.00;0.00;;;;;;;;5100309;27;45479;-71
2023/12/20 02:57:59;;;;;;;;;0.00;0.00;;;;;;;;5096358;27;45368;-70
2023/12/20 03:00:25;;;;;;;;;0.00;0.00;;;;;;;;5100535;27;45430;-71
2023/12/20 03:02:50;;;;;;;;;0.00;0.00;;;;;;;;5100072;27;45990;-71
2023/12/20 03:05:16;;;;;;;;;0.00;0.00;;;;;;;;5100306;27;45852;-71
2023/12/20 03:07:41;;;;;;;;;0.33;0.33;;;;;;;;5100471;27;45490;-71
2023/12/20 03:10:08;;;;;;;;;1.00;1.00;;;;;;;;5099005;27;45349;-71
2023/12/20 03:12:33;;;;;;;;;0.00;0.00;;;;;;;;5098663;27;46399;-71
2023/12/20 03:14:58;;;;;;;;;0.00;0.00;;;;;;;;5098326;27;45538;-71
2023/12/20 03:17:24;;;;;;;;;0.00;0.00;;;;;;;;5098714;27;45938;-71
2023/12/20 03:19:49;;;;;;;;;0.00;0.00;;;;;;;;5100380;27;45368;-71
2023/12/20 03:22:14;;;;;;;;;0.00;0.00;;;;;;;;5100063;27;45395;-71
2023/12/20 03:24:40;;;;;;;;;0.67;0.67;;;;;;;;5100645;27;45417;-71
2023/12/20 03:27:05;;;;;;;;;0.00;0.00;;;;;;;;5100754;27;45513;-71
2023/12/20 03:29:30;;;;;;;;;0.00;0.00;;;;;;;;5100698;27;45279;-71
2023/12/20 03:31:56;;;;;;;;;0.00;0.00;;;;;;;;5100584;27;46089;-71
2023/12/20 03:34:21;;;;;;;;;1.00;0.00;;;;;;;;5100606;27;45400;-71
2023/12/20 03:36:47;;;;;;;;;0.00;0.00;;;;;;;;5099557;27;45460;-71
2023/12/20 03:39:13;;;;;;;;;0.00;0.00;;;;;;;;5099696;27;45490;-72
2023/12/20 03:41:38;;;;;;;;;0.00;0.00;;;;;;;;5100100;27;45478;-71
2023/12/20 03:44:04;;;;;;;;;0.00;0.00;;;;;;;;5099042;27;45505;-71
2023/12/20 03:46:29;;;;;;;;;0.00;0.00;;;;;;;;5100409;27;45610;-71
2023/12/20 03:48:54;;;;;;;;;0.33;0.33;;;;;;;;5100654;27;45343;-71
2023/12/20 03:51:20;;;;;;;;;0.33;0.33;;;;;;;;5100200;27;45339;-71
2023/12/20 03:53:45;;;;;;;;;0.33;0.00;;;;;;;;5098906;27;45305;-71
2023/12/20 03:56:10;;;;;;;;;1.00;1.00;;;;;;;;5100053;27;45234;-71
2023/12/20 03:58:36;;;;;;;;;0.00;0.00;;;;;;;;5100341;27;45459;-71
2023/12/20 04:01:02;;;;;;;;;0.00;0.00;;;;;;;;5100128;27;46017;-71
2023/12/20 04:03:27;;;;;;;;;0.00;0.00;;;;;;;;5100095;27;45245;-71
2023/12/20 04:05:53;;;;;;;;;0.00;0.00;;;;;;;;5100135;27;45447;-71
2023/12/20 04:08:18;;;;;;;;;0.00;0.00;;;;;;;;5100596;27;45398;-71
2023/12/20 04:10:43;;;;;;;;;1.00;0.00;;;;;;;;5099915;27;46141;-71
2023/12/20 04:13:09;;;;;;;;;1.00;0.00;;;;;;;;5099988;27;45340;-71
2023/12/20 04:15:34;;;;;;;;;0.00;0.00;;;;;;;;5099864;27;45604;-71
2023/12/20 04:17:59;;;;;;;;;1.00;0.00;;;;;;;;5100096;27;45221;-71
2023/12/20 04:20:25;;;;;;;;;1.00;0.00;;;;;;;;5098395;27;46459;-71
2023/12/20 04:22:50;;;;;;;;;0.33;0.00;;;;;;;;5099791;27;45478;-71
2023/12/20 04:25:15;;;;;;;;;0.00;0.00;;;;;;;;5100015;27;45717;-71
2023/12/20 04:27:41;;;;;;;;;0.00;0.00;;;;;;;;5099835;27;45507;-71
2023/12/20 04:30:07;;;;;;;;;0.00;0.00;;;;;;;;5099540;27;46139;-71
2023/12/20 04:32:33;;;;;;;;;1.00;0.00;;;;;;;;5099623;27;45266;-71
2023/12/20 04:34:58;;;;;;;;;0.00;0.00;;;;;;;;5098278;27;45451;-71
2023/12/20 04:37:23;;;;;;;;;1.00;0.00;;;;;;;;5099905;27;45395;-71
2023/12/20 04:39:50;;;;;;;;;1.00;0.00;;;;;;;;5099767;27;45400;-71
2023/12/20 04:42:15;;;;;;;;;0.33;0.00;;;;;;;;5099345;27;45445;-71
2023/12/20 04:44:40;;;;;;;;;0.33;0.00;;;;;;;;5099501;27;45245;-71
2023/12/20 04:47:06;;;;;;;;;1.00;0.00;;;;;;;;5099566;27;45324;-71
2023/12/20 04:49:31;;;;;;;;;0.00;0.00;;;;;;;;5099390;27;46136;-71
2023/12/20 04:51:56;;;;;;;;;0.33;0.00;;;;;;;;5099368;27;45360;-71
2023/12/20 04:54:22;;;;;;;;;0.00;0.00;;;;;;;;5098968;27;45475;-72
2023/12/20 04:56:47;;;;;;;;;1.00;0.00;;;;;;;;5099769;27;45472;-71
2023/12/20 04:59:13;;;;;;;;;1.00;1.00;;;;;;;;5097669;27;45409;-71
2023/12/20 05:01:38;;;;;;;;;0.00;0.00;;;;;;;;5099114;27;45480;-71
2023/12/20 05:04:04;;;;;;;;;0.00;0.00;;;;;;;;5099241;27;45507;-71
2023/12/20 05:06:29;;;;;;;;;2.00;0.00;;;;;;;;5099354;27;45324;-72
2023/12/20 05:08:54;;;;;;;;;0.33;0.33;;;;;;;;5097574;27;46282;-71
2023/12/20 05:11:20;;;;;;;;;1.00;0.33;;;;;;;;5099177;27;45269;-71
2023/12/20 05:13:45;;;;;;;;;2.00;1.00;;;;;;;;5098888;27;45215;-71
2023/12/20 05:16:11;;;;;;;;;0.67;0.67;;;;;;;;5099192;27;45271;-71
2023/12/20 05:18:36;;;;;;;;;0.00;0.00;;;;;;;;5098753;27;45476;-71
2023/12/20 05:21:01;;;;;;;;;0.67;0.00;;;;;;;;5098908;27;45338;-71
2023/12/20 05:23:27;;;;;;;;;1.67;1.00;;;;;;;;5098932;27;45368;-71
2023/12/20 05:25:52;;;;;;;;;1.00;0.00;;;;;;;;5099264;27;45238;-71
2023/12/20 05:28:17;;;;;;;;;1.00;1.00;;;;;;;;5098593;27;45328;-71
2023/12/20 05:30:43;;;;;;;;;1.67;0.33;;;;;;;;5098713;27;45539;-71
2023/12/20 05:33:09;;;;;;;;;2.67;1.00;;;;;;;;5098822;27;45710;-72
2023/12/20 05:35:34;;;;;;;;;1.33;0.67;;;;;;;;5098774;27;45490;-71
2023/12/20 05:37:59;;;;;;;;;1.67;1.00;;;;;;;;5098382;27;46214;-71
2023/12/20 05:40:25;;;;;;;;;2.00;2.00;;;;;;;;5098509;27;45486;-71
2023/12/20 05:42:50;;;;;;;;;1.00;1.00;;;;;;;;5098893;27;45308;-71
2023/12/20 05:45:15;;;;;;;;;2.00;1.00;;;;;;;;5097391;27;45594;-71
2023/12/20 05:47:41;;;;;;;;;0.33;0.33;;;;;;;;5096958;27;47778;-71
2023/12/20 05:50:06;;;;;;;;;1.33;1.00;;;;;;;;5098340;27;45402;-71
2023/12/20 05:52:32;;;;;;;;;1.00;1.00;;;;;;;;5098441;27;45474;-71
2023/12/20 05:55:00;;;;;;;;;1.00;0.00;;;;;;;;5098401;27;45375;-71
2023/12/20 05:57:26;;;;;;;;;2.33;1.67;;;;;;;;5098142;27;46236;-71
2023/12/20 05:59:51;;;;;;;;;0.00;0.00;;;;;;;;5098345;27;45457;-71
2023/12/20 06:02:17;;;;;;;;;0.33;0.00;;;;;;;;5096843;27;45312;-71
2023/12/20 06:04:43;;;;;;;;;0.00;0.00;;;;;;;;5098280;27;45470;-71
2023/12/20 06:07:08;;;;;;;;;3.33;2.00;;;;;;;;5097024;27;46250;-71
2023/12/20 06:09:34;;;;;;;;;1.00;0.33;;;;;;;;5096634;27;45380;-71
2023/12/20 06:11:59;;;;;;;;;1.00;0.00;;;;;;;;5098349;27;45611;-71
2023/12/20 06:14:24;;;;;;;;;1.00;0.00;;;;;;;;5098470;27;45408;-71
2023/12/20 06:16:50;;;;;;;;;1.33;0.00;;;;;;;;5097884;27;46008;-71
2023/12/20 06:19:15;;;;;;;;;1.00;0.00;;;;;;;;5097898;27;45437;-71
2023/12/20 06:21:40;;;;;;;;;1.00;0.00;;;;;;;;5097822;27;45219;-71
2023/12/20 06:24:06;;;;;;;;;1.00;1.00;;;;;;;;5098072;27;45341;-71
2023/12/20 06:26:31;;;;;;;;;0.00;0.00;;;;;;;;5097837;27;45449;-71
2023/12/20 06:28:56;;;;;;;;;1.00;1.00;;;;;;;;5097971;27;45519;-71
2023/12/20 06:31:22;;;;;;;;;1.00;1.00;;;;;;;;5097637;27;45490;-71
2023/12/20 06:33:49;;;;;;;;;0.00;0.00;;;;;;;;5098034;27;45440;-71
2023/12/20 06:36:14;;;;;;;;;1.67;1.00;;;;;;;;5097724;27;45361;-71
2023/12/20 06:38:42;;;;;;;;;0.00;0.00;;;;;;;;5096236;27;45475;-71
2023/12/20 06:41:07;;;;;;;;;1.00;0.00;;;;;;;;5097983;27;45316;-71
2023/12/20 06:43:33;;;;;;;;;1.00;0.00;;;;;;;;5097871;27;45497;-71
2023/12/20 06:46:01;;;;;;;;;2.00;1.00;;;;;;;;5096937;27;45975;-72
2023/12/20 06:48:26;;;;;;;;;5.75;4.50;;;;;;;;5096952;27;45378;-73
2023/12/20 06:50:52;;;;;;;;;4.00;1.00;;;;;;;;5096785;27;45254;-71
2023/12/20 06:53:17;;;;;;;;;1.00;1.00;;;;;;;;5097102;27;45466;-71
2023/12/20 06:55:43;;;;;;;;;2.00;1.00;;;;;;;;5096376;27;45461;-74
2023/12/20 06:58:08;;;;;;;;;2.00;2.00;;;;;;;;5096767;27;45412;-71
2023/12/20 07:00:34;;;;;;;;;1.67;0.67;;;;;;;;5097386;27;45897;-71
2023/12/20 07:02:59;;;;;;;;;2.00;2.00;;;;;;;;5097670;27;45219;-71
2023/12/20 07:05:25;;;;;;;;;0.00;0.00;;;;;;;;5097616;27;45311;-71
2023/12/20 07:07:50;;;;;;;;;3.00;2.00;;;;;;;;5097305;27;45459;-71
2023/12/20 07:10:15;;;;;;;;;2.25;2.25;;;;;;;;5097452;27;45440;-71
2023/12/20 07:12:41;;;;;;;;;3.00;3.00;;;;;;;;5096883;27;45312;-71
2023/12/20 07:15:07;;;;;;;;;3.00;3.00;;;;;;;;5094887;27;45390;-71
2023/12/20 07:17:34;;;;;;;;;6.00;6.00;;;;;;;;5097901;27;45515;-71
2023/12/20 07:20:03;;;;;;;;;5.00;5.00;;;;;;;;5100718;27;45327;-76
2023/12/20 07:22:29;;;;;;;;;6.00;6.00;;;;;;;;5101004;27;46118;-76
2023/12/20 07:24:54;;;;;;;;;15.25;13.50;;;;;;;;5099727;27;46087;-73
2023/12/20 07:27:20;;;;;;;;;2.50;2.25;;;;;;;;5100133;27;45447;-72
2023/12/20 07:29:45;;;;;;;;;3.50;3.00;;;;;;;;5100392;27;45502;-72
2023/12/20 07:32:11;;;;;;;;;4.50;4.00;;;;;;;;5100358;27;45408;-74
2023/12/20 07:34:36;;;;;;;;;1.67;1.00;;;;;;;;5100040;27;45718;-72
2023/12/20 07:37:01;;;;;;;;;2.00;1.00;;;;;;;;5100166;27;45376;-71
2023/12/20 07:39:27;;;;;;;;;1.00;1.00;;;;;;;;5100853;27;45458;-75
2023/12/20 07:41:52;;;;;;;;;1.00;1.00;;;;;;;;5100507;27;45354;-76
2023/12/20 07:44:17;;;;;;;;;1.00;1.00;;;;;;;;5100259;27;46122;-71
2023/12/20 07:46:43;;;;;;;;;2.00;2.00;;;;;;;;5100024;27;45668;-71
2023/12/20 07:49:10;;;;;;;;;1.67;1.00;;;;;;;;5098935;27;45636;-76
2023/12/20 07:51:35;;;;;;;;;3.33;1.67;;;;;;;;5100074;27;45424;-72
2023/12/20 07:54:00;;;;;;;;;1.67;0.67;;;;;;;;5100537;27;46319;-72
2023/12/20 07:56:26;;;;;;;;;0.67;0.00;;;;;;;;5100057;27;45494;-71
2023/12/20 07:58:51;;;;;;;;;3.00;2.75;;;;;;;;5100237;27;45422;-71
2023/12/20 08:01:18;;;;;;;;;2.25;1.00;;;;;;;;5098879;27;45313;-72
2023/12/20 08:03:43;;;;;;;;;3.00;1.00;;;;;;;;5099857;27;46196;-71
2023/12/20 08:06:09;;;;;;;;;1.67;1.00;;;;;;;;5099937;27;45288;-71
2023/12/20 08:08:34;;;;;;;;;1.00;1.00;;;;;;;;5099922;27;45301;-71
2023/12/20 08:11:00;;;;;;;;;3.00;2.00;;;;;;;;5100263;27;45492;-71
2023/12/20 08:13:29;;;;;;;;;2.33;1.00;;;;;;;;5099581;27;46117;-71
2023/12/20 08:15:55;;;;;;;;;2.00;1.33;;;;;;;;5099465;27;45563;-71
2023/12/20 08:18:21;;;;;;;;;4.00;1.00;;;;;;;;5098162;27;45477;-71
2023/12/20 08:20:48;;;;;;;;;1.33;0.67;;;;;;;;5099490;27;45304;-84
2023/12/20 08:23:13;;;;;;;;;1.00;0.00;;;;;;;;5098946;27;46018;-71
2023/12/20 08:25:38;;;;;;;;;3.75;3.75;;;;;;;;5097775;27;45406;-71
2023/12/20 08:28:04;;;;;;;;;4.00;3.00;;;;;;;;5099396;27;45584;-72
2023/12/20 08:30:30;;;;;;;;;5.00;4.00;;;;;;;;5099341;27;45297;-71
2023/12/20 08:32:56;;;;;;;;;3.00;2.67;;;;;;;;5099311;27;45427;-71
2023/12/20 08:35:22;;;;;;;;;3.00;3.00;;;;;;;;5099198;27;45440;-71
2023/12/20 08:37:47;;;;;;;;;6.00;5.00;;;;;;;;5099193;27;45443;-71
2023/12/20 08:40:13;;;;;;;;;3.75;3.00;;;;;;;;5097892;27;45467;-71
2023/12/20 08:42:38;;;;;;;;;5.25;5.00;;;;;;;;5098992;27;45980;-71
2023/12/20 08:45:04;;;;;;;;;8.00;5.00;;;;;;;;5098925;27;45351;-72
2023/12/20 08:47:29;;;;;;;;;4.75;3.25;;;;;;;;5097936;27;45949;-71
2023/12/20 08:49:56;;;;;;;;;5.00;4.00;;;;;;;;5099453;27;45952;-71
2023/12/20 08:52:24;;;;;;;;;2.75;2.25;;;;;;;;5097501;27;46219;-71
2023/12/20 08:54:51;;;;;;;;;7.50;4.75;;;;;;;;5098561;27;45468;-71
2023/12/20 08:57:18;;;;;;;;;2.67;2.33;;;;;;;;5098822;27;45505;-71
2023/12/20 08:59:43;;;;;;;;;5.00;3.75;;;;;;;;5099045;27;45494;-71
2023/12/20 09:02:09;;;;;;;;;3.00;2.67;;;;;;;;5097416;27;47696;-72
2023/12/20 09:04:34;;;;;;;;;13.00;11.00;;;;;;;;5097623;27;45339;-71
2023/12/20 09:07:00;;;;;;;;;7.50;5.75;;;;;;;;5099117;27;45285;-71
2023/12/20 09:09:26;;;;;;;;;5.75;4.25;;;;;;;;5099088;27;45416;-71
2023/12/20 09:11:51;;;;;;;;;3.33;3.00;;;;;;;;5098755;27;45503;-71
2023/12/20 09:14:16;;;;;;;;;2.00;1.67;;;;;;;;5098544;27;45494;-72
2023/12/20 09:16:42;;;;;;;;;4.00;2.50;;;;;;;;5098819;27;45252;-71
2023/12/20 09:19:07;;;;;;;;;1.67;1.00;;;;;;;;5098952;27;45269;-71
2023/12/20 09:21:32;;;;;;;;;2.75;2.00;;;;;;;;5098853;27;45427;-71
2023/12/20 09:23:58;;;;;;;;;5.50;3.00;;;;;;;;5096965;27;45483;-71
2023/12/20 09:26:24;;;;;;;;;3.00;3.00;;;;;;;;5097026;27;45370;-71
2023/12/20 09:28:49;;;;;;;;;4.00;3.00;;;;;;;;5096509;27;45539;-71
2023/12/20 09:31:14;;;;;;;;;6.00;3.00;;;;;;;;5098126;27;45947;-82
2023/12/20 09:33:40;;;;;;;;;3.33;2.00;;;;;;;;5098210;27;45505;-71
2023/12/20 09:36:05;;;;;;;;;5.00;3.00;;;;;;;;5097386;27;45418;-71
2023/12/20 09:38:31;;;;;;;;;3.00;2.00;;;;;;;;5098383;27;45229;-71
2023/12/20 09:40:56;;;;;;;;;2.00;1.00;;;;;;;;5098299;27;46071;-71
2023/12/20 09:43:23;;;;;;;;;4.00;2.67;;;;;;;;5098275;27;45584;-71
2023/12/20 09:45:52;;;;;;;;;4.00;3.75;;;;;;;;5098344;27;45413;-71
2023/12/20 09:48:19;;;;;;;;;3.33;2.00;;;;;;;;5097079;27;45401;-72
2023/12/20 09:50:44;;;;;;;;;2.00;1.00;;;;;;;;5097794;27;46053;-71
2023/12/20 09:53:11;;;;;;;;;1.00;1.00;;;;;;;;5097589;27;45478;-71
2023/12/20 09:55:38;;;;;;;;;4.00;2.00;;;;;;;;5098331;27;45312;-71
2023/12/20 09:58:03;;;;;;;;;4.75;3.00;;;;;;;;5098250;27;45437;-71
2023/12/20 10:00:29;;;;;;;;;5.00;3.50;;;;;;;;5079543;27;45472;-71
2023/12/20 10:02:58;;;;;;;;;4.25;2.75;;;;;;;;5079804;27;45433;-72
2023/12/20 10:05:33;;;;;;;;;6.75;5.75;;;;;;;;5079640;27;45254;-72
2023/12/20 10:07:59;;;;;;;;;4.50;4.00;;;;;;;;5098339;27;45533;-71
2023/12/20 10:10:25;;;;;;;;;3.00;2.75;;;;;;;;5079428;27;45508;-73
2023/12/20 10:13:10;;;;;;;;;1.00;0.00;;;;;;;;5079532;27;45277;-71
2023/12/20 10:15:36;;;;;;;;;1.00;1.00;;;;;;;;5098408;27;45302;-71
2023/12/20 10:18:01;;;;;;;;;1.25;1.00;;;;;;;;5096883;27;45385;-71
2023/12/20 10:20:28;;;;;;;;;1.00;0.00;;;;;;;;5096726;27;45987;-71
2023/12/20 10:22:54;;;;;;;;;2.00;1.00;;;;;;;;5084864;27;45466;-78
2023/12/20 10:25:23;;;;;;;;;1.00;1.00;;;;;;;;5056343;28;45331;-82
2023/12/20 10:27:49;;;;;;;;;2.00;0.00;;;;;;;;5056396;28;45550;-72
2023/12/20 10:30:16;;;;;;;;;0.33;0.33;;;;;;;;5055987;28;45519;-79
2023/12/20 10:32:41;;;;;;;;;1.00;0.00;;;;;;;;5055881;28;45449;-72
2023/12/20 10:35:08;;;;;;;;;1.00;1.00;;;;;;;;5056891;28;45500;-71
2023/12/20 10:37:37;;;;;;;;;2.00;1.00;;;;;;;;5057072;28;45456;-72
2023/12/20 10:40:03;;;;;;;;;1.00;0.67;;;;;;;;5055512;28;46327;-82
2023/12/20 10:42:29;;;;;;;;;1.00;1.00;;;;;;;;5056766;28;45367;-72
2023/12/20 10:44:55;;;;;;;;;0.33;0.00;;;;;;;;5056812;28;46043;-72
2023/12/20 10:47:20;;;;;;;;;0.00;0.00;;;;;;;;5056749;28;45769;-71
2023/12/20 10:49:46;;;;;;;;;1.00;1.00;;;;;;;;5056577;28;45505;-72
2023/12/20 10:52:12;;;;;;;;;0.67;0.00;;;;;;;;5058012;28;45358;-72
2023/12/20 10:54:38;;;;;;;;;1.00;1.00;;;;;;;;5077892;28;45279;-72
2023/12/20 10:57:05;;;;;;;;;2.00;1.00;;;;;;;;5080641;28;45503;-71
2023/12/20 10:59:33;;;;;;;;;2.00;2.00;;;;;;;;5079176;28;45514;-71
2023/12/20 11:01:59;;;;;;;;;2.33;0.00;;;;;;;;5080142;27;45464;-72
2023/12/20 11:04:31;;;;;;;;;1.00;1.00;;;;;;;;5080375;28;45409;-71
2023/12/20 11:07:05;;;;;;;;;4.33;4.00;;;;;;;;5079356;28;45438;-74
2023/12/20 11:09:38;;;;;;;;;6.00;4.33;;;;;;;;5080186;27;46271;-72
2023/12/20 11:12:04;;;;;;;;;3.00;2.67;;;;;;;;5080128;27;45176;-72
2023/12/20 11:14:33;;;;;;;;;4.33;2.00;;;;;;;;5080297;27;45231;-72
2023/12/20 11:17:06;;;;;;;;;4.67;3.00;;;;;;;;5080516;27;45237;-72
2023/12/20 11:19:31;;;;;;;;;11.00;8.75;;;;;;;;5080094;27;45425;-72
2023/12/20 11:21:57;;;;;;;;;9.00;6.25;;;;;;;;5080033;27;45137;-71
2023/12/20 11:24:24;;;;;;;;;6.25;5.75;;;;;;;;5080368;27;45333;-71
2023/12/20 11:26:50;;;;;;;;;4.00;3.00;;;;;;;;5080084;27;45401;-71
2023/12/20 11:29:32;;;;;;;;;1.33;0.33;;;;;;;;5079575;27;46019;-71
2023/12/20 11:31:57;;;;;;;;;4.33;2.00;;;;;;;;5078600;28;45619;-71
2023/12/20 11:34:26;;;;;;;;;7.00;4.67;;;;;;;;5078710;28;45430;-71
2023/12/20 11:36:57;;;;;;;;;4.33;2.33;;;;;;;;5080290;27;45345;-71
2023/12/20 11:39:22;;;;;;;;;3.00;2.00;;;;;;;;5079741;27;45950;-71
2023/12/20 11:41:49;;;;;;;;;2.00;1.67;;;;;;;;5079789;27;45324;-71
2023/12/20 11:44:17;;;;;;;;;8.25;7.50;;;;;;;;5080100;27;45437;-73
2023/12/20 11:46:42;;;;;;;;;3.00;2.67;;;;;;;;5080315;27;45534;-71
2023/12/20 11:49:07;;;;;;;;;12.25;10.00;;;;;;;;5079388;27;45487;-71
2023/12/20 11:51:33;;;;;;;;;6.00;4.00;;;;;;;;5079413;27;45244;-72
2023/12/20 11:53:58;;;;;;;;;3.00;2.00;;;;;;;;5079431;27;45365;-71
2023/12/20 11:56:23;;;;;;;;;2.33;2.00;;;;;;;;5079625;27;45581;-73
2023/12/20 11:58:49;;;;;;;;;5.50;3.00;;;;;;;;5086395;27;45966;-73
2023/12/20 12:01:14;;;;;;;;;3.00;2.00;;;;;;;;5099842;27;45399;-72
2023/12/20 12:03:42;;;;;;;;;1.33;1.00;;;;;;;;5099176;27;45749;-72
2023/12/20 12:06:08;;;;;;;;;2.00;1.33;;;;;;;;5098857;27;45404;-72
2023/12/20 12:08:33;;;;;;;;;3.33;2.00;;;;;;;;5099294;27;45455;-72
2023/12/20 12:10:58;;;;;;;;;3.33;2.67;;;;;;;;5099986;27;45468;-72
2023/12/20 12:13:27;;;;;;;;;3.00;2.67;;;;;;;;5099986;27;45650;-72
2023/12/20 12:15:53;;;;;;;;;10.50;9.25;;;;;;;;5099966;27;45472;-72
2023/12/20 12:18:18;;;;;;;;;4.00;3.00;;;;;;;;5099654;27;46350;-72
2023/12/20 12:20:44;;;;;;;;;5.00;4.00;;;;;;;;5099963;27;45476;-72
2023/12/20 12:23:09;;;;;;;;;5.00;4.33;;;;;;;;5098443;27;45250;-72
2023/12/20 12:25:36;;;;;;;;;11.25;10.25;;;;;;;;5099906;27;45372;-72
2023/12/20 12:28:01;;;;;;;;;10.50;9.75;;;;;;;;5099599;27;45463;-72
2023/12/20 12:30:27;;;;;;;;;7.33;6.00;;;;;;;;5099452;27;45474;-72
2023/12/20 12:32:53;;;;;;;;;8.33;8.00;;;;;;;;5099772;27;45258;-71
2023/12/20 12:35:18;;;;;;;;;6.00;5.00;;;;;;;;5099836;27;45281;-71
2023/12/20 12:37:43;;;;;;;;;1.33;1.00;;;;;;;;5099619;27;46111;-71
2023/12/20 12:40:13;;;;;;;;;3.33;2.33;;;;;;;;5099450;27;45306;-72
2023/12/20 12:42:39;;;;;;;;;5.67;4.00;;;;;;;;5099471;27;45379;-72
2023/12/20 12:45:05;;;;;;;;;6.00;4.67;;;;;;;;5099702;27;45415;-72
2023/12/20 12:47:30;;;;;;;;;2.00;2.00;;;;;;;;5099165;27;45924;-71
2023/12/20 12:49:56;;;;;;;;;3.33;2.67;;;;;;;;5099392;27;45337;-72
2023/12/20 12:52:21;;;;;;;;;2.67;1.00;;;;;;;;5099396;27;45545;-71
2023/12/20 12:54:47;;;;;;;;;3.00;3.00;;;;;;;;5099776;27;45416;-72
2023/12/20 12:57:13;;;;;;;;;4.67;3.00;;;;;;;;5098947;27;45485;-72
2023/12/20 12:59:39;;;;;;;;;16.00;15.25;;;;;;;;5099392;27;45367;-72
2023/12/20 13:02:04;;;;;;;;;43.75;35.00;;;;;;;;5098941;27;45436;-72
2023/12/20 13:04:29;;;;;;;;;7.67;6.67;;;;;;;;5099264;27;45475;-72
2023/12/20 13:06:55;;;;;;;;;9.00;7.67;;;;;;;;5098949;27;45930;-72
2023/12/20 13:09:20;;;;;;;;;12.67;9.33;;;;;;;;5098945;27;45370;-72
2023/12/20 13:11:46;;;;;;;;;34.00;30.50;;;;;;;;5099180;27;45227;-72
2023/12/20 13:14:15;;;;;;;;;9.25;7.25;;;;;;;;5099030;27;45451;-72
2023/12/20 13:16:40;;;;;;;;;16.25;16.00;;;;;;;;5098528;27;46063;-72
2023/12/20 13:19:06;;;;;;;;;9.25;8.00;;;;;;;;5098842;27;45297;-72
2023/12/20 13:21:31;;;;;;;;;13.25;9.00;;;;;;;;5098815;27;45598;-72
2023/12/20 13:23:56;;;;;;;;;8.25;7.50;;;;;;;;5098841;27;45464;-71
2023/12/20 13:26:22;;;;;;;;;3.00;3.00;;;;;;;;5098575;27;45928;-71
2023/12/20 13:28:47;;;;;;;;;2.33;2.33;;;;;;;;5098931;27;45516;-72
2023/12/20 13:31:13;;;;;;;;;3.33;2.33;;;;;;;;5098622;27;45504;-72
2023/12/20 13:33:39;;;;;;;;;2.00;2.00;;;;;;;;5098690;27;45146;-72
2023/12/20 13:36:04;;;;;;;;;4.00;3.00;;;;;;;;5098301;27;45338;-72
2023/12/20 13:38:30;;;;;;;;;5.67;4.00;;;;;;;;5098794;27;45865;-72
2023/12/20 13:40:55;;;;;;;;;11.00;10.00;;;;;;;;5098888;27;45792;-72
2023/12/20 13:43:21;;;;;;;;;9.00;8.50;;;;;;;;5098392;27;45453;-72
2023/12/20 13:45:47;;;;;;;;;6.33;4.00;;;;;;;;5099249;27;45480;-72
2023/12/20 13:48:13;;;;;;;;;3.67;2.67;;;;;;;;5098290;27;45580;-72
2023/12/20 13:50:38;;;;;;;;;7.00;5.00;;;;;;;;5098300;27;45446;-72
2023/12/20 13:53:04;;;;;;;;;10.00;6.00;;;;;;;;5098410;27;45490;-84
2023/12/20 13:55:30;;;;;;;;;6.00;6.00;;;;;;;;5098064;27;45474;-72
2023/12/20 13:57:56;;;;;;;;;5.00;4.33;;;;;;;;5098230;27;45385;-72
2023/12/20 14:00:21;;;;;;;;;3.00;2.67;;;;;;;;5098829;27;45310;-72
2023/12/20 14:02:47;;;;;;;;;5.00;3.00;;;;;;;;5081479;27;45343;-78
2023/12/20 14:05:16;;;;;;;;;7.00;5.33;;;;;;;;5076788;28;45524;-73
2023/12/20 14:07:44;;;;;;;;;10.00;9.00;;;;;;;;5076498;27;45453;-74
2023/12/20 14:10:10;;;;;;;;;14.00;13.00;;;;;;;;5076695;27;45461;-72
2023/12/20 14:12:37;;;;;;;;;10.25;8.75;;;;;;;;5076946;28;45377;-72
2023/12/20 14:15:03;;;;;;;;;5.33;4.00;;;;;;;;5076818;27;46009;-72
2023/12/20 14:17:29;;;;;;;;;3.00;3.00;;;;;;;;5076762;28;45246;-72
2023/12/20 14:19:54;;;;;;;;;4.00;4.00;;;;;;;;5076445;28;45557;-73
2023/12/20 14:22:20;;;;;;;;;4.33;4.00;;;;;;;;5077028;28;45513;-72
2023/12/20 14:24:45;;;;;;;;;3.50;3.00;;;;;;;;5075996;28;45623;-73
2023/12/20 14:27:11;;;;;;;;;8.00;6.00;;;;;;;;5075882;27;45467;-80
2023/12/20 14:29:37;;;;;;;;;2.00;2.00;;;;;;;;5075732;28;45620;-81
2023/12/20 14:32:03;;;;;;;;;6.00;5.00;;;;;;;;5076458;28;45425;-73